Time;durP1;ratioP1;P1;durP2;ratioP2;P2;SDS_P1;SDS_P2;PMS_P1;PMS_P2;Temp;Humidity;BMP_temperature;BMP_pressure;BME280_temperature;BME280_humidity;BME280_pressure;Samples;Min_cycle;Max_cycle;Signal;HPM_P1;HPM_P2
2022/07/03 00:00:56;;;;;;;;;0.00;0.00;;;;;21.26;40.83;101177.75;4906220;29;45705;-89
2022/07/03 00:03:21;;;;;;;;;1.00;1.00;;;;;21.11;40.62;101163.34;4900905;29;45670;-86
2022/07/03 00:05:47;;;;;;;;;1.75;1.00;;;;;21.20;40.57;101169.56;4911220;28;46062;-87
2022/07/03 00:08:12;;;;;;;;;0.75;0.75;;;;;21.12;40.69;101165.00;4901993;28;46192;-86
2022/07/03 00:10:39;;;;;;;;;0.75;0.25;;;;;21.19;40.51;101175.91;4900570;28;46053;-88
2022/07/03 00:13:04;;;;;;;;;0.00;0.00;;;;;21.14;40.57;101167.53;4900416;29;45776;-86
2022/07/03 00:15:30;;;;;;;;;0.25;0.25;;;;;21.12;40.68;101161.50;4902170;29;45591;-87
2022/07/03 00:17:55;;;;;;;;;0.00;0.00;;;;;21.16;40.91;101173.56;4901579;28;45664;-84
2022/07/03 00:20:21;;;;;;;;;0.00;0.00;;;;;21.05;40.96;101152.53;4905813;28;46024;-83
2022/07/03 00:22:48;;;;;;;;;0.00;0.00;;;;;21.08;40.80;101161.03;4900453;29;46511;-84
2022/07/03 00:25:14;;;;;;;;;2.00;1.00;;;;;21.14;40.76;101167.53;4882643;29;47231;-84
2022/07/03 00:27:43;;;;;;;;;0.50;0.00;;;;;21.09;40.68;101160.03;4898884;29;46254;-84
2022/07/03 00:30:09;;;;;;;;;1.50;0.25;;;;;21.09;40.79;101161.84;4891642;29;45827;-84
2022/07/03 00:32:38;;;;;;;;;1.00;1.00;;;;;21.07;40.72;101163.84;4898365;28;45627;-84
2022/07/03 00:35:04;;;;;;;;;0.75;0.75;;;;;20.96;40.46;101151.66;4899833;29;46638;-84
2022/07/03 00:37:34;;;;;;;;;0.00;0.00;;;;;21.05;40.68;101169.34;4900780;28;46299;-84
2022/07/03 00:40:01;;;;;;;;;0.50;0.00;;;;;21.02;40.88;101175.00;4903554;28;45795;-83
2022/07/03 00:42:27;;;;;;;;;1.75;1.00;;;;;21.02;40.68;101172.31;4897507;29;45609;-84
2022/07/03 00:44:56;;;;;;;;;0.25;0.25;;;;;20.99;40.64;101167.34;4902717;28;45704;-85
2022/07/03 00:47:27;;;;;;;;;0.25;0.00;;;;;20.90;40.54;101161.13;4901609;28;46206;-85
2022/07/03 00:49:57;;;;;;;;;1.25;0.50;;;;;20.76;40.88;101151.13;4884842;29;45843;-86
2022/07/03 00:52:23;;;;;;;;;0.25;0.25;;;;;20.77;40.71;101162.59;4900620;28;45726;-82
2022/07/03 00:54:59;;;;;;;;;1.00;0.25;;;;;20.85;40.85;101179.44;4900712;29;46606;-85
2022/07/03 00:57:28;;;;;;;;;1.00;0.00;;;;;20.77;40.59;101168.78;4881085;28;48535;-83
2022/07/03 00:59:54;;;;;;;;;0.00;0.00;;;;;20.68;40.42;101161.72;4900376;29;45735;-87
2022/07/03 01:02:38;;;;;;;;;0.00;0.00;;;;;20.74;40.48;101186.88;4899199;28;45691;-86
2022/07/03 01:05:06;;;;;;;;;0.50;0.00;;;;;20.70;40.65;101174.88;4881840;29;47721;-87
2022/07/03 01:08:23;;;;;;;;;1.00;0.00;;;;;20.63;40.65;101180.00;4899822;28;46424;-85
2022/07/03 01:10:58;;;;;;;;;0.75;0.00;;;;;20.59;40.47;101178.66;4818273;29;45761;-84
2022/07/03 01:13:39;;;;;;;;;1.00;0.00;;;;;20.54;40.74;101178.31;4898117;28;45763;-84
2022/07/03 01:16:24;;;;;;;;;1.00;1.00;;;;;20.48;40.45;101179.78;4897803;29;45768;-82
2022/07/03 01:19:32;;;;;;;;;0.00;0.00;;;;;20.47;40.62;101194.09;4896520;29;46725;-82
2022/07/03 01:22:25;;;;;;;;;0.50;0.00;;;;;20.44;40.69;101186.44;4897334;29;46069;-83
2022/07/03 01:25:25;;;;;;;;;0.50;0.50;;;;;20.42;40.92;101182.25;4899188;29;45687;-88
2022/07/03 01:27:59;;;;;;;;;0.00;0.00;;;;;20.40;40.90;101186.91;4893107;29;45826;-87
2022/07/03 01:30:27;;;;;;;;;1.00;0.00;;;;;20.38;40.76;101183.56;4900152;28;46058;-87
2022/07/03 01:32:58;;;;;;;;;0.25;0.25;;;;;20.37;40.90;101188.03;4897591;28;45803;-85
2022/07/03 01:35:46;;;;;;;;;0.00;0.00;;;;;20.37;40.99;101192.53;4906954;28;45631;-87
2022/07/03 01:38:13;;;;;;;;;1.00;1.00;;;;;20.29;40.89;101174.69;4897624;28;45688;-86
2022/07/03 01:40:42;;;;;;;;;0.00;0.00;;;;;20.34;41.12;101177.72;4897660;28;49196;-86
2022/07/03 01:43:09;;;;;;;;;0.00;0.00;;;;;20.34;41.07;101177.72;4899521;29;45791;-87
2022/07/03 01:45:39;;;;;;;;;0.00;0.00;;;;;20.30;41.02;101170.16;4900480;28;45663;-87
2022/07/03 01:48:06;;;;;;;;;0.00;0.00;;;;;20.32;40.81;101176.19;4899581;28;45968;-87
2022/07/03 01:50:32;;;;;;;;;0.00;0.00;;;;;20.28;40.63;101173.00;4899806;29;45769;-84
2022/07/03 01:53:04;;;;;;;;;0.75;0.00;;;;;20.31;40.57;101178.03;4882944;29;45980;-86
2022/07/03 01:55:32;;;;;;;;;0.00;0.00;;;;;20.18;40.73;101158.97;4895360;28;45741;-87
2022/07/03 01:57:58;;;;;;;;;0.00;0.00;;;;;20.28;40.50;101175.66;4892330;29;45939;-87
2022/07/03 02:00:25;;;;;;;;;0.50;0.25;;;;;20.25;40.59;101173.31;4900888;28;47506;-85
2022/07/03 02:03:03;;;;;;;;;0.00;0.00;;;;;20.24;41.04;101179.63;4901525;29;45587;-85
2022/07/03 02:05:28;;;;;;;;;0.25;0.00;;;;;20.22;40.78;101175.44;4884604;29;45747;-87
2022/07/03 02:08:00;;;;;;;;;2.00;0.00;;;;;20.21;40.73;101176.44;4901364;28;46373;-86
2022/07/03 02:10:33;;;;;;;;;0.00;0.00;;;;;20.17;40.99;101175.09;4879805;29;47069;-87
2022/07/03 02:13:09;;;;;;;;;0.00;0.00;;;;;20.07;41.08;101160.09;4906164;28;45939;-87
2022/07/03 02:15:35;;;;;;;;;0.00;0.00;;;;;20.04;41.27;101164.84;4904074;28;45786;-87
2022/07/03 02:18:30;;;;;;;;;0.50;0.00;;;;;20.03;41.25;101177.31;4898810;29;45572;-87
2022/07/03 02:21:18;;;;;;;;;0.25;0.25;;;;;20.00;41.40;101164.34;4899133;29;45933;-87
2022/07/03 02:23:49;;;;;;;;;1.00;0.00;;;;;20.05;41.41;101179.84;4897816;29;46311;-88
2022/07/03 02:26:17;;;;;;;;;0.25;0.00;;;;;20.02;41.38;101172.19;4895859;28;45661;-86
2022/07/03 02:29:03;;;;;;;;;0.50;0.50;;;;;20.01;42.15;101176.66;4901042;28;47451;-87
2022/07/03 02:31:38;;;;;;;;;0.75;0.25;;;;;19.98;42.53;101173.47;4880572;29;47268;-85
2022/07/03 02:34:05;;;;;;;;;1.00;1.00;;;;;19.90;42.47;101168.94;4908048;28;45807;-87
2022/07/03 02:36:33;;;;;;;;;1.75;1.00;;;;;19.92;43.00;101169.59;4881779;29;45685;-86
2022/07/03 02:38:59;;;;;;;;;2.25;2.00;;;;;19.83;43.46;101161.72;4900589;28;46697;-85
2022/07/03 02:41:39;;;;;;;;;1.75;1.00;;;;;19.83;43.52;101167.88;4883877;29;46653;-84
2022/07/03 02:44:14;;;;;;;;;0.00;0.00;;;;;19.84;43.36;101180.19;4872334;29;45809;-83
2022/07/03 02:46:54;;;;;;;;;1.75;1.00;;;;;19.86;44.04;101178.22;4899818;28;45773;-87
2022/07/03 02:49:19;;;;;;;;;1.25;1.00;;;;;19.89;43.81;101185.03;4880619;29;47179;-83
2022/07/03 02:52:00;;;;;;;;;1.75;1.00;;;;;19.85;43.71;101189.00;4897041;28;46432;-83
2022/07/03 02:54:26;;;;;;;;;1.00;1.00;;;;;19.64;44.12;101176.88;4898810;28;45695;-86
2022/07/03 02:57:07;;;;;;;;;1.00;1.00;;;;;19.69;43.93;101193.22;4896506;28;45755;-83
2022/07/03 02:59:32;;;;;;;;;1.25;1.00;;;;;19.64;43.88;101195.50;4895519;29;48244;-85
2022/07/03 03:02:07;;;;;;;;;1.00;1.00;;;;;19.58;44.12;101193.44;4870639;29;47298;-86
2022/07/03 03:04:38;;;;;;;;;2.00;1.50;;;;;19.54;44.89;101186.75;4884563;29;45617;-82
2022/07/03 03:07:14;;;;;;;;;1.25;1.00;;;;;19.51;44.98;101195.03;4896391;29;45814;-84
2022/07/03 03:09:45;;;;;;;;;2.00;2.00;;;;;19.46;44.95;101194.66;4879803;28;48488;-83
2022/07/03 03:12:14;;;;;;;;;2.00;1.00;;;;;19.44;44.81;101191.28;4883103;29;47334;-85
2022/07/03 03:14:42;;;;;;;;;1.75;1.00;;;;;19.28;45.37;101176.00;4910729;29;45546;-83
2022/07/03 03:17:15;;;;;;;;;1.00;1.00;;;;;19.36;45.55;101198.34;4905614;29;45819;-84
2022/07/03 03:19:45;;;;;;;;;2.00;2.00;;;;;19.34;45.16;101201.16;4901479;29;45644;-84
2022/07/03 03:22:48;;;;;;;;;1.00;1.00;;;;;19.22;45.30;101189.06;4896535;29;45777;-85
2022/07/03 03:25:13;;;;;;;;;1.25;1.25;;;;;19.27;45.62;101206.22;4905675;28;45670;-85
2022/07/03 03:27:40;;;;;;;;;2.25;1.25;;;;;19.22;45.97;101205.84;4894317;29;45617;-83
2022/07/03 03:30:06;;;;;;;;;2.00;1.00;;;;;19.18;45.91;101198.31;4878541;29;48824;-83
2022/07/03 03:32:35;;;;;;;;;1.00;1.00;;;;;19.14;45.58;101196.97;4878160;29;48352;-84
2022/07/03 03:35:01;;;;;;;;;2.50;1.00;;;;;19.09;45.86;101194.75;4894781;29;45799;-83
2022/07/03 03:37:27;;;;;;;;;1.00;1.00;;;;;19.06;45.97;101188.88;4894695;29;46103;-83
2022/07/03 03:39:52;;;;;;;;;3.00;1.00;;;;;19.10;45.86;101196.44;4886392;29;48704;-84
2022/07/03 03:42:18;;;;;;;;;1.00;1.00;;;;;19.03;46.07;101189.19;4889160;29;46573;-83
2022/07/03 03:44:43;;;;;;;;;0.25;0.25;;;;;19.07;45.88;101202.03;4890932;29;45712;-85
2022/07/03 03:47:09;;;;;;;;;1.00;1.00;;;;;19.06;46.01;101200.34;4880473;29;46258;-84
2022/07/03 03:49:34;;;;;;;;;2.00;1.00;;;;;18.98;45.95;101187.00;4895321;28;46770;-85
2022/07/03 03:52:00;;;;;;;;;2.00;1.00;;;;;18.90;46.41;101181.56;4894509;29;46280;-85
2022/07/03 03:54:26;;;;;;;;;1.00;1.00;;;;;18.90;46.66;101178.09;4893110;28;46081;-85
2022/07/03 03:56:51;;;;;;;;;2.25;2.00;;;;;18.90;46.54;101183.38;4895995;29;45679;-84
2022/07/03 03:59:16;;;;;;;;;1.00;1.00;;;;;18.95;46.90;101197.09;4878228;29;48317;-83
2022/07/03 04:01:42;;;;;;;;;2.00;1.25;;;;;18.85;46.40;101187.34;4890245;29;46202;-83
2022/07/03 04:04:07;;;;;;;;;1.00;1.00;;;;;18.86;46.79;101196.16;4880411;29;45881;-86
2022/07/03 04:06:32;;;;;;;;;1.50;1.25;;;;;18.72;46.71;101175.41;4898871;28;45726;-83
2022/07/03 04:09:03;;;;;;;;;1.50;1.00;;;;;18.84;47.06;101200.75;4900239;28;45711;-84
2022/07/03 04:11:29;;;;;;;;;3.00;2.00;;;;;18.83;47.31;101207.91;4898497;28;48339;-85
2022/07/03 04:13:54;;;;;;;;;1.00;1.00;;;;;18.77;47.01;101205.00;4898027;29;45992;-86
2022/07/03 04:16:19;;;;;;;;;2.00;1.50;;;;;18.68;47.08;101197.91;4899791;28;46004;-86
2022/07/03 04:18:45;;;;;;;;;1.00;1.00;;;;;18.70;47.12;101204.75;4899672;29;46418;-86
2022/07/03 04:21:10;;;;;;;;;1.00;1.00;;;;;18.60;47.57;101206.63;4902863;28;47300;-88
2022/07/03 04:23:36;;;;;;;;;1.00;1.00;;;;;18.53;47.29;101200.16;4900969;28;45740;-87
2022/07/03 04:26:05;;;;;;;;;1.00;1.00;;;;;18.59;47.76;101202.28;4899355;28;45768;-87
2022/07/03 04:28:31;;;;;;;;;0.00;0.00;;;;;18.55;47.66;101214.19;4908177;28;46967;-87
2022/07/03 04:30:56;;;;;;;;;0.75;0.75;;;;;18.43;48.00;101194.91;4881719;28;47102;-86
2022/07/03 04:33:21;;;;;;;;;0.00;0.00;;;;;18.50;47.73;101221.72;4898721;29;45907;-86
2022/07/03 04:35:47;;;;;;;;;1.00;1.00;;;;;18.46;47.61;101215.84;4901304;28;45684;-85
2022/07/03 04:38:12;;;;;;;;;1.75;1.00;;;;;18.39;47.83;101217.41;4904129;28;45621;-85
2022/07/03 04:40:37;;;;;;;;;1.00;1.00;;;;;18.48;47.68;101231.63;4900701;29;47251;-84
2022/07/03 04:43:03;;;;;;;;;1.00;1.00;;;;;18.41;48.26;101230.50;4881745;29;46609;-86
2022/07/03 04:45:28;;;;;;;;;2.50;1.00;;;;;18.33;48.51;101215.34;4891460;29;45871;-86
2022/07/03 04:47:54;;;;;;;;;1.00;1.00;;;;;18.34;47.79;101224.97;4899176;28;46482;-86
2022/07/03 04:50:19;;;;;;;;;1.00;1.00;;;;;18.38;48.13;101236.97;4898876;28;45679;-85
2022/07/03 04:52:44;;;;;;;;;1.00;1.00;;;;;18.36;48.33;101222.16;4896654;28;46044;-85
2022/07/03 04:55:19;;;;;;;;;1.00;1.00;;;;;18.31;48.79;101230.53;4898971;29;45691;-85
2022/07/03 04:57:44;;;;;;;;;0.00;0.00;;;;;18.24;48.40;101210.91;4898314;29;46667;-86
2022/07/03 05:00:10;;;;;;;;;1.00;1.00;;;;;18.33;49.21;101231.25;4896891;29;47259;-86
2022/07/03 05:02:35;;;;;;;;;1.00;1.00;;;;;18.35;48.68;101225.81;4880694;29;45686;-86
2022/07/03 05:05:01;;;;;;;;;0.75;0.25;;;;;18.25;49.34;101215.19;4906073;28;45698;-85
2022/07/03 05:07:26;;;;;;;;;1.75;1.00;;;;;18.35;49.43;101223.16;4900004;28;45777;-85
2022/07/03 05:09:51;;;;;;;;;2.25;1.00;;;;;18.39;50.21;101232.50;4897259;29;46105;-86
2022/07/03 05:12:20;;;;;;;;;1.00;1.00;;;;;18.31;49.61;101211.13;4898303;28;45739;-84
2022/07/03 05:14:48;;;;;;;;;1.00;1.00;;;;;18.47;50.06;101240.56;4898997;29;45686;-84
2022/07/03 05:17:16;;;;;;;;;2.00;1.00;;;;;18.49;49.71;101240.41;4905945;29;45794;-85
2022/07/03 05:19:41;;;;;;;;;2.00;1.00;;;;;18.48;49.91;101225.47;4902646;29;46127;-87
2022/07/03 05:22:07;;;;;;;;;0.00;0.00;;;;;18.44;49.94;101224.94;4893816;29;46062;-85
2022/07/03 05:24:32;;;;;;;;;3.00;1.25;;;;;18.41;50.02;101218.09;4895462;28;45789;-82
2022/07/03 05:26:58;;;;;;;;;1.50;1.25;;;;;18.55;50.26;101237.22;4887676;29;47316;-82
2022/07/03 05:29:23;;;;;;;;;2.75;1.75;;;;;18.49;50.18;101229.81;4902124;29;45867;-83
2022/07/03 05:31:49;;;;;;;;;1.00;1.00;;;;;18.48;50.72;101217.50;4880972;29;45856;-85
2022/07/03 05:34:14;;;;;;;;;1.75;1.00;;;;;18.53;50.43;101229.38;4896588;28;45682;-86
2022/07/03 05:36:39;;;;;;;;;1.00;1.00;;;;;18.46;50.60;101223.78;4879510;29;46855;-86
2022/07/03 05:41:49;;;;;;;;;0.50;0.50;;;;;18.53;50.75;101229.38;4897954;29;45821;-85
2022/07/03 05:44:14;;;;;;;;;2.00;1.00;;;;;18.57;51.07;101245.88;4880438;29;45776;-83
2022/07/03 05:46:40;;;;;;;;;2.00;1.75;;;;;18.58;51.05;101237.75;4897922;29;46504;-83
2022/07/03 05:49:05;;;;;;;;;2.50;1.00;;;;;18.58;51.12;101243.06;4893885;28;47670;-85
2022/07/03 05:51:31;;;;;;;;;2.00;2.00;;;;;18.54;50.72;101230.22;4892218;29;46282;-84
2022/07/03 05:53:56;;;;;;;;;1.75;1.00;;;;;18.56;51.12;101233.59;4878294;29;45586;-85
2022/07/03 05:56:21;;;;;;;;;0.25;0.25;;;;;18.61;51.14;101247.25;4897975;29;45846;-85
2022/07/03 05:58:47;;;;;;;;;1.50;0.75;;;;;18.60;51.42;101248.25;4897983;29;45629;-83
2022/07/03 06:01:12;;;;;;;;;1.50;1.00;;;;;18.56;51.74;101242.41;4898491;28;45668;-85
2022/07/03 06:03:38;;;;;;;;;1.25;1.00;;;;;18.55;51.72;101242.53;4898398;29;46018;-84
2022/07/03 06:06:03;;;;;;;;;1.00;1.00;;;;;18.49;51.38;101257.19;4897888;29;46900;-85
2022/07/03 06:08:29;;;;;;;;;1.00;1.00;;;;;18.43;52.03;101245.31;4896924;29;45843;-87
2022/07/03 06:10:55;;;;;;;;;1.75;1.00;;;;;18.42;53.05;101246.31;4880146;29;46085;-83
2022/07/03 06:13:20;;;;;;;;;1.00;1.00;;;;;18.43;52.40;101247.97;4879904;29;45889;-84
2022/07/03 06:15:46;;;;;;;;;1.75;1.50;;;;;18.50;52.28;101258.03;4896989;29;45667;-86
2022/07/03 06:18:12;;;;;;;;;1.25;1.25;;;;;18.51;52.56;101249.94;4897968;28;46383;-85
2022/07/03 06:20:37;;;;;;;;;2.00;2.00;;;;;18.53;52.68;101265.69;4896294;29;46123;-80
2022/07/03 06:23:02;;;;;;;;;1.00;1.00;;;;;18.55;52.50;101256.63;4894171;29;45842;-79
2022/07/03 06:25:28;;;;;;;;;1.75;1.00;;;;;18.55;52.82;101275.22;4890077;29;45675;-80
2022/07/03 06:27:54;;;;;;;;;2.00;1.25;;;;;18.62;52.80;101267.53;4878049;29;48308;-79
2022/07/03 06:30:19;;;;;;;;;2.00;1.75;;;;;18.64;53.28;101271.69;4894919;28;45634;-80
2022/07/03 06:32:45;;;;;;;;;2.00;1.00;;;;;18.64;53.15;101281.47;4895774;28;45616;-81
2022/07/03 06:35:10;;;;;;;;;2.00;1.75;;;;;18.66;52.94;101269.75;4896324;29;46606;-81
2022/07/03 06:37:36;;;;;;;;;2.00;1.50;;;;;18.58;53.51;101260.81;4896727;29;45970;-81
2022/07/03 06:40:05;;;;;;;;;2.25;2.25;;;;;18.60;53.02;101259.69;4895938;29;45680;-81
2022/07/03 06:42:30;;;;;;;;;2.75;2.25;;;;;18.56;53.86;101241.56;4892173;28;45764;-81
2022/07/03 06:44:56;;;;;;;;;4.00;1.00;;;;;18.66;53.62;101258.28;4897002;28;46400;-81
2022/07/03 06:47:21;;;;;;;;;2.00;1.50;;;;;18.66;53.56;101261.78;4895438;28;46446;-80
2022/07/03 06:49:47;;;;;;;;;3.00;3.00;;;;;18.65;53.19;101256.59;4892782;28;46137;-81
2022/07/03 06:52:12;;;;;;;;;2.50;2.50;;;;;18.65;53.63;101243.34;4886426;29;46094;-80
2022/07/03 06:57:59;;;;;;;;;3.00;3.00;;;;;18.83;53.21;101265.47;4899035;29;46039;-82
2022/07/03 07:00:25;;;;;;;;;3.75;3.00;;;;;18.79;53.01;101250.81;4899862;29;45644;-82
2022/07/03 07:02:50;;;;;;;;;3.75;3.50;;;;;18.93;53.34;101278.72;4901122;29;45710;-82
2022/07/03 07:05:16;;;;;;;;;3.75;3.75;;;;;18.98;53.48;101277.28;4898216;29;45956;-82
2022/07/03 07:07:41;;;;;;;;;3.25;3.25;;;;;19.03;53.09;101283.00;4899474;29;46426;-87
2022/07/03 07:13:28;;;;;;;;;4.00;3.25;;;;;19.05;52.74;101266.94;4899025;29;45666;-83
2022/07/03 07:15:54;;;;;;;;;3.75;3.00;;;;;19.17;52.70;101284.31;4880813;29;47291;-82
2022/07/03 07:18:19;;;;;;;;;4.00;3.00;;;;;19.21;52.59;101273.28;4898026;29;45729;-85
2022/07/03 07:20:45;;;;;;;;;3.75;3.50;;;;;19.20;53.26;101270.75;4898458;29;45683;-84
2022/07/03 07:23:11;;;;;;;;;5.25;3.50;;;;;19.24;52.44;101280.09;4880053;29;45997;-84
2022/07/03 07:28:58;;;;;;;;;5.25;4.00;;;;;19.35;52.68;101287.03;4899063;29;45638;-83
2022/07/03 07:31:23;;;;;;;;;4.50;4.00;;;;;19.37;52.74;101291.22;4898349;29;45648;-85
2022/07/03 07:33:49;;;;;;;;;4.75;4.25;;;;;19.45;52.11;101295.81;4897318;29;45849;-82
2022/07/03 07:36:14;;;;;;;;;4.00;4.00;;;;;19.41;52.54;101275.78;4899248;29;45571;-84
2022/07/03 07:38:40;;;;;;;;;5.00;5.00;;;;;19.37;52.56;101275.28;4901747;29;45735;-85
2022/07/03 07:44:27;;;;;;;;;4.00;4.00;;;;;19.52;52.14;101280.94;4903613;29;45624;-78
2022/07/03 07:46:53;;;;;;;;;4.25;4.25;;;;;19.53;52.34;101278.13;4902689;29;46728;-82
2022/07/03 07:49:18;;;;;;;;;3.50;3.00;;;;;19.55;52.44;101284.13;4901066;29;46123;-80
2022/07/03 07:51:44;;;;;;;;;6.25;4.00;;;;;19.59;52.13;101288.16;4900599;29;45790;-80
2022/07/03 07:54:09;;;;;;;;;4.00;3.00;;;;;19.57;52.45;101282.16;4900498;29;45565;-80
2022/07/03 07:59:56;;;;;;;;;4.00;3.50;;;;;19.69;52.26;101291.59;4899628;29;45938;-79
2022/07/03 08:07:55;;;;;;;;;3.00;3.00;;;;;19.73;52.04;101296.59;4899724;29;46119;-80
2022/07/03 08:10:20;;;;;;;;;5.00;3.25;;;;;19.73;52.02;101296.59;4898287;29;48292;-82
2022/07/03 08:16:07;;;;;;;;;3.75;3.25;;;;;19.69;51.92;101293.41;4902978;29;45491;-77
2022/07/03 08:18:32;;;;;;;;;2.75;2.75;;;;;19.70;51.75;101285.25;4900706;29;46548;-77
2022/07/03 08:20:58;;;;;;;;;3.50;3.00;;;;;19.70;51.95;101279.13;4899838;29;45625;-76
2022/07/03 08:23:23;;;;;;;;;4.75;4.00;;;;;19.72;51.97;101279.81;4899295;29;45757;-78
2022/07/03 08:25:48;;;;;;;;;5.00;3.75;;;;;19.77;51.29;101276.69;4899906;29;45792;-78
2022/07/03 08:31:49;;;;;;;;;3.50;2.75;;;;;19.91;51.33;101289.47;4897366;29;46548;-79
2022/07/03 08:34:16;;;;;;;;;3.00;2.75;;;;;19.94;50.87;101289.16;4899449;29;45702;-78
2022/07/03 08:36:42;;;;;;;;;2.50;1.75;;;;;20.03;50.81;101288.22;4899691;29;45516;-79
2022/07/03 08:39:09;;;;;;;;;4.00;3.00;;;;;20.07;50.93;101284.28;4899366;29;45718;-77
2022/07/03 08:41:37;;;;;;;;;3.00;1.75;;;;;20.13;50.50;101296.13;4898928;29;45836;-78
2022/07/03 08:44:04;;;;;;;;;2.00;2.00;;;;;20.02;50.55;101263.47;4898882;29;45552;-78
2022/07/03 08:46:31;;;;;;;;;4.00;4.00;;;;;20.13;50.68;101276.50;4899468;29;45783;-79
2022/07/03 08:49:01;;;;;;;;;1.75;1.75;;;;;20.20;50.30;101281.19;4898217;29;45674;-78
2022/07/03 08:51:27;;;;;;;;;2.50;1.50;;;;;20.23;50.25;101276.44;4902571;29;45644;-82
2022/07/03 08:53:56;;;;;;;;;3.00;2.00;;;;;20.29;49.51;101283.78;4902550;29;45537;-84
2022/07/03 08:56:22;;;;;;;;;2.00;2.00;;;;;20.30;50.06;101272.13;4910446;29;45525;-81
2022/07/03 08:58:49;;;;;;;;;2.00;2.00;;;;;20.27;49.94;101267.13;4912876;29;46853;-86
2022/07/03 09:01:17;;;;;;;;;1.75;1.75;;;;;20.41;49.75;101282.56;4916430;29;45581;-81
2022/07/03 09:03:43;;;;;;;;;2.00;2.00;;;;;20.44;49.99;101268.97;4916915;29;45735;-87
2022/07/03 09:06:08;;;;;;;;;2.25;2.00;;;;;20.40;49.73;101264.94;4916206;29;45607;-85
2022/07/03 09:08:36;;;;;;;;;2.00;1.75;;;;;20.55;49.74;101281.16;4914271;29;45593;-81
2022/07/03 09:11:03;;;;;;;;;1.75;1.75;;;;;20.59;49.26;101287.84;4910292;29;45526;-85
2022/07/03 09:16:51;;;;;;;;;1.75;0.75;;;;;20.59;49.66;101276.34;4904520;29;45591;-85
2022/07/03 09:19:47;;;;;;;;;2.50;2.50;;;;;20.65;49.59;101283.72;4901867;29;45967;-85
2022/07/03 09:22:20;;;;;;;;;1.75;1.75;;;;;20.64;49.61;101277.56;4904220;29;45570;-87
2022/07/03 09:24:46;;;;;;;;;1.50;1.50;;;;;20.65;49.49;101257.94;4906763;29;45642;-88
2022/07/03 09:27:16;;;;;;;;;1.75;1.75;;;;;20.77;49.81;101271.81;4909627;29;45573;-87
2022/07/03 09:30:11;;;;;;;;;2.00;2.00;;;;;20.83;49.38;101285.34;4907470;29;45886;-85
2022/07/03 09:32:37;;;;;;;;;2.25;1.75;;;;;20.85;49.12;101278.00;4809105;29;45951;-91
2022/07/03 09:35:14;;;;;;;;;2.75;2.00;;;;;20.88;49.24;101276.84;4811801;29;45536;-83
2022/07/03 09:37:59;;;;;;;;;2.25;2.00;;;;;20.90;49.28;101270.34;4814359;29;45652;-88
2022/07/03 09:40:26;;;;;;;;;2.75;1.50;;;;;20.82;49.22;101257.03;4817973;29;45926;-90
2022/07/03 09:43:05;;;;;;;;;2.00;2.00;;;;;20.94;49.24;101269.03;4819223;29;45491;-90
2022/07/03 09:45:56;;;;;;;;;2.25;1.00;;;;;21.01;49.20;101273.72;4819099;29;45538;-87
2022/07/03 09:48:24;;;;;;;;;1.25;1.25;;;;;21.05;48.98;101275.09;4817997;29;45699;-89
2022/07/03 09:51:25;;;;;;;;;1.00;1.00;;;;;21.01;48.31;101268.41;4817426;29;47155;-82
2022/07/03 09:53:55;;;;;;;;;2.25;2.00;;;;;21.12;48.54;101274.28;4812390;29;45700;-86
2022/07/03 09:56:23;;;;;;;;;1.75;1.75;;;;;21.16;48.29;101280.19;4797137;29;45489;-87
2022/07/03 09:59:04;;;;;;;;;2.00;2.00;;;;;21.20;48.26;101301.00;4807931;29;45729;-88
2022/07/03 10:01:30;;;;;;;;;2.00;2.00;;;;;21.23;48.37;101281.19;4805850;29;45677;-86
2022/07/03 10:04:11;;;;;;;;;2.75;2.75;;;;;21.23;47.94;101275.84;4804781;29;46340;-86
2022/07/03 10:06:49;;;;;;;;;2.25;1.75;;;;;21.29;48.20;101288.53;4805781;29;45708;-90
2022/07/03 10:09:16;;;;;;;;;4.25;3.00;;;;;21.26;48.08;101268.38;4860946;29;46005;-89
2022/07/03 10:11:43;;;;;;;;;2.00;2.00;;;;;21.44;47.87;101286.91;4899080;29;47552;-92
2022/07/03 10:14:14;;;;;;;;;3.25;2.25;;;;;21.50;47.53;101280.09;4900762;29;45844;-88
2022/07/03 10:16:39;;;;;;;;;3.75;3.00;;;;;21.45;47.75;101264.59;4902068;29;45544;-84
2022/07/03 10:19:06;;;;;;;;;3.00;2.75;;;;;21.64;47.89;101284.81;4901555;29;45672;-84
2022/07/03 10:21:35;;;;;;;;;4.25;3.00;;;;;21.63;47.26;101280.47;4900026;29;46765;-80
2022/07/03 10:24:02;;;;;;;;;3.75;3.00;;;;;21.70;47.60;101292.16;4900124;28;47180;-84
2022/07/03 10:26:28;;;;;;;;;4.00;4.00;;;;;21.72;47.25;101300.81;4904378;29;45757;-82
2022/07/03 10:28:56;;;;;;;;;3.75;3.00;;;;;21.67;47.14;101287.97;4908459;29;45623;-79
2022/07/03 10:31:23;;;;;;;;;4.75;4.75;;;;;21.73;48.03;101299.81;4904878;29;45723;-79
2022/07/03 10:33:50;;;;;;;;;3.50;3.00;;;;;21.74;47.50;101282.81;4905500;29;45667;-78
2022/07/03 10:36:16;;;;;;;;;2.00;2.00;;;;;21.75;46.85;101284.50;4900125;29;45679;-78
2022/07/03 10:38:46;;;;;;;;;7.25;4.25;;;;;21.70;47.27;101278.81;4898085;29;45616;-83
2022/07/03 10:46:50;;;;;;;;;3.75;3.50;;;;;21.77;47.44;101295.81;4897441;29;45767;-80
2022/07/03 10:49:15;;;;;;;;;3.00;3.00;;;;;21.75;46.99;101274.63;4899524;29;45615;-83
2022/07/03 10:51:57;;;;;;;;;4.00;4.00;;;;;21.87;47.17;101282.31;4898991;29;46692;-83
2022/07/03 10:54:23;;;;;;;;;5.00;5.00;;;;;21.92;47.04;101287.97;4898585;29;45957;-80
2022/07/03 10:56:58;;;;;;;;;4.75;4.00;;;;;21.96;46.66;101290.22;4897746;29;45596;-79
2022/07/03 10:59:56;;;;;;;;;4.50;4.25;;;;;22.02;46.47;101304.72;4897552;29;45772;-80
2022/07/03 11:02:28;;;;;;;;;4.00;4.00;;;;;22.04;46.57;101306.22;4802066;29;45841;-77
2022/07/03 11:04:56;;;;;;;;;6.00;4.00;;;;;22.06;46.56;101298.88;4801352;29;46799;-78
2022/07/03 11:07:22;;;;;;;;;5.00;4.50;;;;;22.04;46.57;101289.34;4802489;29;45693;-79
2022/07/03 11:10:13;;;;;;;;;4.00;4.00;;;;;22.14;46.36;101290.03;4802512;29;46082;-77
2022/07/03 11:16:00;;;;;;;;;9.50;8.75;;;;;22.24;46.12;101281.88;4805840;29;45748;-80
2022/07/03 11:18:28;;;;;;;;;4.00;4.00;;;;;22.31;46.51;101299.69;4805764;29;45612;-79
2022/07/03 11:20:54;;;;;;;;;3.00;3.00;;;;;22.33;46.31;101295.03;4806490;29;45619;-80
2022/07/03 11:23:25;;;;;;;;;4.00;4.00;;;;;22.23;45.87;101278.34;4790844;29;46556;-81
2022/07/03 11:25:53;;;;;;;;;5.25;5.25;;;;;22.34;46.16;101288.69;4807235;29;46244;-82
2022/07/03 11:31:39;;;;;;;;;2.00;2.00;;;;;22.39;45.64;101275.66;4807684;29;45906;-85
2022/07/03 11:34:05;;;;;;;;;5.00;4.00;;;;;22.42;45.82;101275.31;4807306;29;45662;-84
2022/07/03 11:36:32;;;;;;;;;4.00;4.00;;;;;22.47;46.23;101272.97;4807410;29;45603;-81
2022/07/03 11:38:57;;;;;;;;;2.75;2.75;;;;;22.62;44.90;101275.75;4891719;29;45707;-81
2022/07/03 11:41:43;;;;;;;;;4.00;4.00;;;;;22.67;44.66;101272.59;4901604;29;45687;-81
2022/07/03 11:47:32;;;;;;;;;3.50;3.25;;;;;22.82;44.79;101286.94;4901071;29;45899;-81
2022/07/03 11:49:58;;;;;;;;;3.00;3.00;;;;;22.82;44.17;101292.28;4900823;29;45680;-79
2022/07/03 11:52:35;;;;;;;;;3.00;2.00;;;;;22.79;44.38;101282.78;4900634;29;45728;-80
2022/07/03 11:55:01;;;;;;;;;4.00;3.00;;;;;22.70;44.39;101251.72;4900785;29;46351;-79
2022/07/03 11:57:26;;;;;;;;;3.50;2.50;;;;;22.82;44.18;101265.56;4900294;29;46148;-80
2022/07/03 12:03:26;;;;;;;;;3.00;2.00;;;;;23.01;43.62;101254.47;4900112;29;45661;-80
2022/07/03 12:05:56;;;;;;;;;2.00;1.00;;;;;23.05;43.29;101245.06;4900105;29;45747;-79
2022/07/03 12:08:30;;;;;;;;;2.50;2.00;;;;;23.18;43.24;101263.22;4900136;29;46600;-79
2022/07/03 12:11:10;;;;;;;;;2.00;1.25;;;;;23.26;42.28;101264.03;4899833;29;45805;-79
2022/07/03 12:13:36;;;;;;;;;1.50;1.50;;;;;23.30;42.08;101268.03;4900379;29;45774;-79
2022/07/03 12:16:15;;;;;;;;;3.75;2.25;;;;;23.31;41.75;101269.69;4899199;29;47529;-80
2022/07/03 12:18:51;;;;;;;;;1.00;1.00;;;;;23.30;41.92;101259.16;4900182;29;46309;-79
2022/07/03 12:21:19;;;;;;;;;2.25;2.00;;;;;23.27;41.63;101255.00;4899856;29;45772;-79
2022/07/03 12:23:51;;;;;;;;;1.00;1.00;;;;;23.35;41.11;101246.94;4898884;29;45489;-79
2022/07/03 12:26:39;;;;;;;;;1.00;1.00;;;;;23.35;40.86;101262.97;4899908;29;45948;-79
2022/07/03 12:29:12;;;;;;;;;1.75;1.75;;;;;23.28;40.92;101245.97;4899394;29;46136;-80